This is the latest recevied weather packets stored in our database for station/object OE-11369. If no packets are shown the sender has not sent any weather packets the latest 10 day(s).
| Time | Temp. | Humidity | Pressure | Rain* | Wind** | Luminosity | Snow |
|---|---|---|---|---|---|---|---|
| 1787658075 | 18.89° C | 70% | 1011.7 hPa | - | - | - | - |
| 1787657701 | 18.89° C | 70% | 1011.6 hPa | - | - | - | - |
| 1787657101 | 19.44° C | 68% | 1011.3 hPa | - | - | - | - |
| 1787654475 | 20.56° C | 62% | 1010.4 hPa | - | - | - | - |
| 1787654102 | 21.11° C | 63% | 1010.2 hPa | - | - | - | - |
| 1787652302 | 20° C | 63% | 1010.3 hPa | - | - | - | - |
| 1787651701 | 20° C | 65% | 1010.3 hPa | - | - | - | - |
| 1787650875 | 20° C | 70% | 1010.3 hPa | - | - | - | - |
| 1787650502 | 18.89° C | 68% | 1010.4 hPa | - | - | - | - |
| 1787649902 | 18.89° C | 69% | 1010.3 hPa | - | - | - | - |
| 1787649074 | 19.44° C | 65% | 1010.1 hPa | - | - | - | - |
| 1787648702 | 19.44° C | 63% | 1009.5 hPa | - | - | - | - |
| 1787648102 | 20° C | 63% | 1009.1 hPa | - | - | - | - |
| 1787647274 | 20° C | 68% | 1008.9 hPa | - | - | - | - |
| 1787646902 | 19.44° C | 67% | 1008.6 hPa | - | - | - | - |
| 1787646302 | 19.44° C | 66% | 1008.5 hPa | - | - | - | - |
| 1787645474 | 19.44° C | 68% | 1008.3 hPa | - | - | - | - |
| 1787645102 | 18.89° C | 69% | 1008.5 hPa | - | - | - | - |
| 1787644502 | 18.33° C | 72% | 1008.4 hPa | - | - | - | - |
| 1787643675 | 18.33° C | 70% | 1008.3 hPa | - | - | - | - |
| 1787643302 | 18.33° C | 72% | 1008.1 hPa | - | - | - | - |
| 1787642702 | 18.33° C | 72% | 1008.2 hPa | - | - | - | - |
| 1787641875 | 18.33° C | 75% | 1008 hPa | - | - | - | - |
| 1787641501 | 18.33° C | 73% | 1008.1 hPa | - | - | - | - |
| 1787640901 | 17.78° C | 72% | 1008.1 hPa | - | - | - | - |
* Rain since midnight (hover to see other rain measurements)
** Current wind speed in m/s (hover to see current wind gust speed)